CDT,Max TemperatureF,Mean TemperatureF,Min TemperatureF,Max Dew PointF,MeanDew PointF,Min DewpointF,Max Humidity, Mean Humidity, Min Humidity, Max Sea Level PressureIn, Mean Sea Level PressureIn, Min Sea Level PressureIn, Max VisibilityMiles, Mean VisibilityMiles, Min VisibilityMiles, Max Wind SpeedMPH, Mean Wind SpeedMPH, Max Gust SpeedMPH,PrecipitationIn, CloudCover, Events, WindDirDegrees
2013-3-1,60,45,30,36,30,23,100,65,25,30.23,30.17,30.11,10,10,5,16,4,26,0.00,0,,320
2013-3-2,50,39,28,32,27,21,100,70,34,30.31,30.25,30.18,10,10,7,17,5,23,0.00,1,,336
2013-3-3,60,42,24,36,28,21,100,63,23,30.31,30.21,30.09,10,10,10,9,2,,0.00,0,,177
2013-3-4,73,53,33,59,50,32,100,75,53,30.08,29.95,29.85,10,9,1,21,6,31,0.00,3,,179
2013-3-5,69,58,46,61,43,23,94,56,17,30.28,30.08,29.85,10,10,5,18,8,26,0.00,2,,308
2013-3-6,64,47,30,36,27,18,93,57,16,30.39,30.30,30.24,10,9,3,10,4,17,0.00,0,,343
2013-3-7,64,47,30,41,33,28,100,67,26,30.36,30.28,30.23,10,8,2,8,1,,0.00,0,,81
2013-3-8,71,52,33,50,43,32,100,72,43,30.30,30.22,30.12,10,9,2,9,1,,0.00,0,,125
2013-3-9,71,60,50,61,55,46,94,82,64,30.12,30.02,29.90,10,10,10,14,5,23,0.00,3,Rain,141
2013-3-10,71,61,50,64,57,43,100,88,69,29.98,29.88,29.83,10,8,1,16,6,25,1.18,7,Rain-Thunderstorm,156
2013-3-11,59,48,37,45,34,28,100,59,31,30.09,30.02,29.96,10,10,10,16,7,24,0.00,2,Thunderstorm,313
2013-3-12,68,50,32,46,34,27,100,66,21,30.27,30.16,30.07,10,10,5,9,1,,0.00,0,,357
2013-3-13,68,52,35,45,34,25,100,63,20,30.45,30.36,30.27,10,10,7,16,3,25,0.00,0,,11
2013-3-14,69,51,33,43,35,27,100,61,23,30.46,30.37,30.30,10,10,10,9,2,,0.00,0,,174
2013-3-15,75,56,37,55,48,36,100,73,41,30.31,30.20,30.10,10,10,7,18,3,25,0.00,0,,190
2013-3-16,77,62,46,59,53,45,100,74,44,30.10,29.99,29.91,10,8,0,16,5,24,0.00,3,Fog,183
2013-3-17,77,64,50,66,59,48,100,85,61,29.93,29.85,29.77,10,8,1,15,3,23,0.00,5,Rain,173
2013-3-18,84,75,66,66,65,57,94,76,54,29.95,29.81,29.75,10,8,2,15,6,20,0.00,5,,192
2013-3-19,75,62,48,57,44,37,87,51,31,30.04,30.00,29.94,10,10,10,14,8,21,0.00,2,,43
2013-3-20,71,56,42,46,40,28,93,58,21,30.22,30.11,30.01,10,10,7,16,7,23,0.06,2,Rain,5
2013-3-21,68,55,42,45,39,30,100,60,24,30.07,29.95,29.81,10,10,10,13,3,20,0.00,3,,130
2013-3-22,80,68,57,68,60,45,100,81,59,29.84,29.76,29.70,10,8,2,10,5,18,0.02,5,Rain,149
2013-3-23,71,66,62,68,66,59,94,91,83,29.79,29.70,29.58,10,5,1,10,2,,0.01,8,Rain,32
2013-3-24,62,52,41,59,42,28,94,63,31,30.11,29.86,29.63,10,9,5,20,8,30,0.00,7,,321
2013-3-25,60,46,32,36,25,16,100,55,19,30.34,30.22,30.12,10,10,5,15,5,25,0.00,0,,330
2013-3-26,57,42,28,36,25,18,100,59,23,30.46,30.39,30.33,10,10,10,14,4,22,0.00,0,,338
2013-3-27,64,47,30,41,31,27,100,66,26,30.45,30.35,30.25,10,10,10,8,1,,0.00,0,,169
2013-3-28,69,52,35,50,41,34,100,71,27,30.36,30.29,30.23,10,10,4,9,1,,0.00,5,,153
2013-3-29,75,60,44,55,50,43,100,74,44,30.30,30.23,30.16,10,8,0,12,2,20,0.00,8,Fog,182
2013-3-30,77,64,50,61,55,48,100,81,44,30.19,30.09,30.01,10,8,1,14,2,24,0.00,8,Rain,186
2013-3-31,75,64,53,64,59,52,100,91,64,30.03,29.97,29.89,10,7,1,23,3,34,0.36,6,Rain-Thunderstorm,198